sensor_id;sensor_type;location;lat;lon;timestamp;pressure;altitude;pressure_sealevel;temperature;humidity
1480;BME280;732;51.698;4.886;2023-04-30T00:00:37;102486.75;;;3.76;71.88
1480;BME280;732;51.698;4.886;2023-04-30T00:03:05;102496.03;;;3.83;72.37
1480;BME280;732;51.698;4.886;2023-04-30T00:05:33;102498.50;;;3.86;72.25
1480;BME280;732;51.698;4.886;2023-04-30T00:08:01;102495.84;;;3.86;71.87
1480;BME280;732;51.698;4.886;2023-04-30T00:10:30;102493.84;;;3.90;71.60
1480;BME280;732;51.698;4.886;2023-04-30T00:12:59;102498.19;;;3.91;71.52
1480;BME280;732;51.698;4.886;2023-04-30T00:15:27;102481.44;;;3.76;71.10
1480;BME280;732;51.698;4.886;2023-04-30T00:17:55;102476.34;;;3.73;71.30
1480;BME280;732;51.698;4.886;2023-04-30T00:20:24;102493.19;;;3.86;70.90
1480;BME280;732;51.698;4.886;2023-04-30T00:22:52;102494.88;;;3.87;70.60
1480;BME280;732;51.698;4.886;2023-04-30T00:25:21;102499.84;;;3.79;71.02
1480;BME280;732;51.698;4.886;2023-04-30T00:27:50;102495.66;;;3.75;71.39
1480;BME280;732;51.698;4.886;2023-04-30T00:30:20;102502.00;;;3.72;71.90
1480;BME280;732;51.698;4.886;2023-04-30T00:32:48;102494.94;;;3.73;71.57
1480;BME280;732;51.698;4.886;2023-04-30T00:35:16;102466.88;;;3.54;71.10
1480;BME280;732;51.698;4.886;2023-04-30T00:37:45;102498.81;;;3.67;71.68
1480;BME280;732;51.698;4.886;2023-04-30T00:40:14;102495.59;;;3.62;72.05
1480;BME280;732;51.698;4.886;2023-04-30T00:42:42;102455.44;;;3.39;71.90
1480;BME280;732;51.698;4.886;2023-04-30T00:45:10;102492.09;;;3.61;72.07
1480;BME280;732;51.698;4.886;2023-04-30T00:47:40;102494.09;;;3.58;72.63
1480;BME280;732;51.698;4.886;2023-04-30T00:50:09;102486.00;;;3.45;72.08
1480;BME280;732;51.698;4.886;2023-04-30T00:52:42;102495.59;;;3.48;72.84
1480;BME280;732;51.698;4.886;2023-04-30T00:55:11;102493.53;;;3.53;72.95
1480;BME280;732;51.698;4.886;2023-04-30T00:57:40;102470.56;;;3.37;72.88
1480;BME280;732;51.698;4.886;2023-04-30T01:00:12;102471.06;;;3.29;72.95
1480;BME280;732;51.698;4.886;2023-04-30T01:02:43;102490.47;;;3.44;72.69
1480;BME280;732;51.698;4.886;2023-04-30T01:05:11;102486.13;;;3.43;72.46
1480;BME280;732;51.698;4.886;2023-04-30T01:07:40;102490.75;;;3.40;72.44
1480;BME280;732;51.698;4.886;2023-04-30T01:10:12;102472.09;;;3.27;72.17
1480;BME280;732;51.698;4.886;2023-04-30T01:12:49;102490.03;;;3.38;72.06
1480;BME280;732;51.698;4.886;2023-04-30T01:15:26;102476.84;;;3.22;71.87
1480;BME280;732;51.698;4.886;2023-04-30T01:18:04;102414.75;;;2.81;72.49
1480;BME280;732;51.698;4.886;2023-04-30T01:20:34;102483.09;;;3.21;72.96
1480;BME280;732;51.698;4.886;2023-04-30T01:23:27;102498.34;;;3.32;73.30
1480;BME280;732;51.698;4.886;2023-04-30T01:26:11;102499.97;;;3.34;73.01
1480;BME280;732;51.698;4.886;2023-04-30T01:28:44;102499.09;;;3.34;72.55
1480;BME280;732;51.698;4.886;2023-04-30T01:31:13;102492.94;;;3.33;72.51
1480;BME280;732;51.698;4.886;2023-04-30T01:33:42;102501.69;;;3.35;72.39
1480;BME280;732;51.698;4.886;2023-04-30T01:36:28;102496.63;;;3.31;72.45
1480;BME280;732;51.698;4.886;2023-04-30T01:39:11;102496.81;;;3.27;72.60
1480;BME280;732;51.698;4.886;2023-04-30T01:41:52;102497.84;;;3.25;72.57
1480;BME280;732;51.698;4.886;2023-04-30T01:44:40;102464.50;;;3.06;72.68
1480;BME280;732;51.698;4.886;2023-04-30T01:47:23;102495.19;;;3.25;72.71
1480;BME280;732;51.698;4.886;2023-04-30T01:50:03;102497.00;;;3.24;72.49
1480;BME280;732;51.698;4.886;2023-04-30T01:52:46;102472.94;;;3.13;72.59
1480;BME280;732;51.698;4.886;2023-04-30T01:55:21;102474.81;;;3.11;72.35
1480;BME280;732;51.698;4.886;2023-04-30T01:57:56;102488.00;;;3.12;72.70
1480;BME280;732;51.698;4.886;2023-04-30T02:00:28;102500.88;;;3.19;72.38
1480;BME280;732;51.698;4.886;2023-04-30T02:02:57;102489.69;;;3.13;72.76
1480;BME280;732;51.698;4.886;2023-04-30T02:05:26;102495.09;;;3.12;72.89
1480;BME280;732;51.698;4.886;2023-04-30T02:07:55;102501.34;;;3.11;73.25
1480;BME280;732;51.698;4.886;2023-04-30T02:10:25;102482.31;;;3.04;73.27
1480;BME280;732;51.698;4.886;2023-04-30T02:12:55;102498.59;;;3.12;73.37
1480;BME280;732;51.698;4.886;2023-04-30T02:15:23;102490.06;;;3.07;73.30
1480;BME280;732;51.698;4.886;2023-04-30T02:17:53;102491.88;;;3.07;73.38
1480;BME280;732;51.698;4.886;2023-04-30T02:20:21;102492.91;;;3.04;73.58
1480;BME280;732;51.698;4.886;2023-04-30T02:22:50;102492.81;;;3.06;73.38
1480;BME280;732;51.698;4.886;2023-04-30T02:25:18;102500.56;;;3.09;73.28
1480;BME280;732;51.698;4.886;2023-04-30T02:27:47;102495.63;;;3.03;73.62
1480;BME280;732;51.698;4.886;2023-04-30T02:30:16;102499.16;;;3.03;74.07
1480;BME280;732;51.698;4.886;2023-04-30T02:32:46;102492.25;;;3.01;74.43
1480;BME280;732;51.698;4.886;2023-04-30T02:35:16;102500.88;;;3.04;74.48
1480;BME280;732;51.698;4.886;2023-04-30T02:37:44;102489.75;;;2.97;74.50
1480;BME280;732;51.698;4.886;2023-04-30T02:40:13;102483.56;;;2.83;74.80
1480;BME280;732;51.698;4.886;2023-04-30T02:42:41;102494.03;;;2.86;75.02
1480;BME280;732;51.698;4.886;2023-04-30T02:45:10;102456.13;;;2.69;74.82
1480;BME280;732;51.698;4.886;2023-04-30T02:47:38;102501.91;;;3.02;75.19
1480;BME280;732;51.698;4.886;2023-04-30T02:50:07;102485.13;;;2.87;75.17
1480;BME280;732;51.698;4.886;2023-04-30T02:52:37;102504.34;;;2.90;75.98
1480;BME280;732;51.698;4.886;2023-04-30T02:55:06;102511.28;;;2.93;76.06
1480;BME280;732;51.698;4.886;2023-04-30T02:57:35;102503.59;;;2.88;76.31
1480;BME280;732;51.698;4.886;2023-04-30T03:00:05;102512.94;;;2.94;76.15
1480;BME280;732;51.698;4.886;2023-04-30T03:02:34;102508.41;;;2.96;75.44
1480;BME280;732;51.698;4.886;2023-04-30T03:05:05;102510.41;;;2.92;75.55
1480;BME280;732;51.698;4.886;2023-04-30T03:07:34;102523.66;;;2.92;75.29
1480;BME280;732;51.698;4.886;2023-04-30T03:10:05;102504.25;;;2.92;75.08
1480;BME280;732;51.698;4.886;2023-04-30T03:12:35;102505.38;;;2.88;74.89
1480;BME280;732;51.698;4.886;2023-04-30T03:15:08;102515.59;;;2.79;75.24
1480;BME280;732;51.698;4.886;2023-04-30T03:17:36;102515.75;;;2.76;74.91
1480;BME280;732;51.698;4.886;2023-04-30T03:20:06;102513.97;;;2.77;74.96
1480;BME280;732;51.698;4.886;2023-04-30T03:22:34;102490.25;;;2.59;75.23
1480;BME280;732;51.698;4.886;2023-04-30T03:25:05;102505.69;;;2.67;75.52
1480;BME280;732;51.698;4.886;2023-04-30T03:27:35;102482.81;;;2.50;75.08
1480;BME280;732;51.698;4.886;2023-04-30T03:30:05;102505.78;;;2.66;75.40
1480;BME280;732;51.698;4.886;2023-04-30T03:32:33;102505.78;;;2.66;75.21
1480;BME280;732;51.698;4.886;2023-04-30T03:35:01;102500.50;;;2.66;75.20
1480;BME280;732;51.698;4.886;2023-04-30T03:37:30;102503.06;;;2.67;74.77
1480;BME280;732;51.698;4.886;2023-04-30T03:39:59;102507.31;;;2.70;74.75
1480;BME280;732;51.698;4.886;2023-04-30T03:42:28;102477.25;;;2.55;74.87
1480;BME280;732;51.698;4.886;2023-04-30T03:44:57;102500.50;;;2.66;74.55
1480;BME280;732;51.698;4.886;2023-04-30T03:47:25;102494.41;;;2.63;74.40
1480;BME280;732;51.698;4.886;2023-04-30T03:49:53;102486.41;;;2.49;74.65
1480;BME280;732;51.698;4.886;2023-04-30T03:52:22;102499.13;;;2.58;74.71
1480;BME280;732;51.698;4.886;2023-04-30T03:54:52;102497.44;;;2.57;74.30
1480;BME280;732;51.698;4.886;2023-04-30T03:57:21;102500.19;;;2.56;74.30
1480;BME280;732;51.698;4.886;2023-04-30T03:59:50;102494.88;;;2.56;74.46
1480;BME280;732;51.698;4.886;2023-04-30T04:02:19;102494.97;;;2.54;74.40
1480;BME280;732;51.698;4.886;2023-04-30T04:04:51;102504.69;;;2.54;74.27
1480;BME280;732;51.698;4.886;2023-04-30T04:07:19;102496.25;;;2.47;74.93
1480;BME280;732;51.698;4.886;2023-04-30T04:09:47;102497.97;;;2.48;74.45
1480;BME280;732;51.698;4.886;2023-04-30T04:12:16;102504.28;;;2.45;74.35
1480;BME280;732;51.698;4.886;2023-04-30T04:14:44;102507.69;;;2.47;74.20
1480;BME280;732;51.698;4.886;2023-04-30T04:17:14;102500.00;;;2.43;74.19
1480;BME280;732;51.698;4.886;2023-04-30T04:19:43;102504.94;;;2.49;74.08
1480;BME280;732;51.698;4.886;2023-04-30T04:22:12;102498.38;;;2.40;74.54
1480;BME280;732;51.698;4.886;2023-04-30T04:24:43;102489.94;;;2.34;74.35
1480;BME280;732;51.698;4.886;2023-04-30T04:27:15;102514.63;;;2.50;74.76
1480;BME280;732;51.698;4.886;2023-04-30T04:29:43;102515.19;;;2.55;74.71
1480;BME280;732;51.698;4.886;2023-04-30T04:32:14;102518.53;;;2.59;74.87
1480;BME280;732;51.698;4.886;2023-04-30T04:34:43;102516.06;;;2.56;75.12
1480;BME280;732;51.698;4.886;2023-04-30T04:37:12;102513.16;;;2.60;75.13
1480;BME280;732;51.698;4.886;2023-04-30T04:39:41;102512.97;;;2.63;75.05
1480;BME280;732;51.698;4.886;2023-04-30T04:42:11;102518.00;;;2.68;75.46
1480;BME280;732;51.698;4.886;2023-04-30T04:44:39;102517.66;;;2.74;75.24
1480;BME280;732;51.698;4.886;2023-04-30T04:47:08;102520.00;;;2.79;75.47
1480;BME280;732;51.698;4.886;2023-04-30T04:49:39;102520.53;;;2.86;75.21
1480;BME280;732;51.698;4.886;2023-04-30T04:52:08;102526.31;;;2.92;75.27
1480;BME280;732;51.698;4.886;2023-04-30T04:54:37;102524.22;;;2.97;75.40
1480;BME280;732;51.698;4.886;2023-04-30T04:57:05;102525.16;;;2.96;76.13
1480;BME280;732;51.698;4.886;2023-04-30T04:59:33;102526.16;;;3.10;75.82
1480;BME280;732;51.698;4.886;2023-04-30T05:02:01;102524.69;;;3.20;75.45
1480;BME280;732;51.698;4.886;2023-04-30T05:04:30;102523.53;;;3.24;75.91
1480;BME280;732;51.698;4.886;2023-04-30T05:06:59;102518.69;;;3.31;75.76
1480;BME280;732;51.698;4.886;2023-04-30T05:09:28;102520.88;;;3.39;75.54
1480;BME280;732;51.698;4.886;2023-04-30T05:11:56;102472.19;;;3.11;75.99
1480;BME280;732;51.698;4.886;2023-04-30T05:14:26;102522.03;;;3.49;76.50
1480;BME280;732;51.698;4.886;2023-04-30T05:16:54;102516.06;;;3.60;76.37
1480;BME280;732;51.698;4.886;2023-04-30T05:19:22;102519.75;;;3.72;76.41
1480;BME280;732;51.698;4.886;2023-04-30T05:21:50;102523.34;;;3.85;75.92
1480;BME280;732;51.698;4.886;2023-04-30T05:24:20;102473.41;;;3.63;75.89
1480;BME280;732;51.698;4.886;2023-04-30T05:26:48;102499.19;;;3.75;75.88
1480;BME280;732;51.698;4.886;2023-04-30T05:29:16;102501.44;;;3.82;75.98
1480;BME280;732;51.698;4.886;2023-04-30T05:31:45;102505.78;;;3.97;75.90
1480;BME280;732;51.698;4.886;2023-04-30T05:34:13;102510.69;;;4.03;76.20
1480;BME280;732;51.698;4.886;2023-04-30T05:36:41;102503.00;;;4.13;76.25
1480;BME280;732;51.698;4.886;2023-04-30T05:39:10;102507.63;;;4.24;76.16
1480;BME280;732;51.698;4.886;2023-04-30T05:41:40;102509.88;;;4.30;76.00
1480;BME280;732;51.698;4.886;2023-04-30T05:44:11;102511.91;;;4.39;76.26
1480;BME280;732;51.698;4.886;2023-04-30T05:46:39;102494.38;;;4.37;75.66
1480;BME280;732;51.698;4.886;2023-04-30T05:49:08;102508.50;;;4.65;76.67
1480;BME280;732;51.698;4.886;2023-04-30T05:51:36;102520.16;;;4.89;76.34
1480;BME280;732;51.698;4.886;2023-04-30T05:54:04;102517.00;;;5.10;75.35
1480;BME280;732;51.698;4.886;2023-04-30T05:56:33;102528.09;;;5.30;74.75
1480;BME280;732;51.698;4.886;2023-04-30T05:59:02;102524.03;;;5.37;74.31
1480;BME280;732;51.698;4.886;2023-04-30T06:01:30;102510.63;;;5.26;74.03
1480;BME280;732;51.698;4.886;2023-04-30T06:03:59;102532.00;;;5.37;73.84
1480;BME280;732;51.698;4.886;2023-04-30T06:06:29;102531.81;;;5.40;74.09
1480;BME280;732;51.698;4.886;2023-04-30T06:08:58;102505.19;;;5.40;74.20
1480;BME280;732;51.698;4.886;2023-04-30T06:11:26;102532.75;;;5.52;74.21
1480;BME280;732;51.698;4.886;2023-04-30T06:13:54;102520.53;;;5.62;74.52
1480;BME280;732;51.698;4.886;2023-04-30T06:16:27;102504.00;;;5.70;75.16
1480;BME280;732;51.698;4.886;2023-04-30T06:18:56;102504.47;;;5.88;74.05
1480;BME280;732;51.698;4.886;2023-04-30T06:21:24;102517.84;;;6.12;73.80
1480;BME280;732;51.698;4.886;2023-04-30T06:23:55;102514.41;;;6.23;73.21
1480;BME280;732;51.698;4.886;2023-04-30T06:26:23;102504.88;;;6.32;73.22
1480;BME280;732;51.698;4.886;2023-04-30T06:28:55;102504.09;;;6.43;73.68
1480;BME280;732;51.698;4.886;2023-04-30T06:31:25;102494.66;;;6.50;73.33
1480;BME280;732;51.698;4.886;2023-04-30T06:33:53;102511.59;;;6.62;72.78
1480;BME280;732;51.698;4.886;2023-04-30T06:36:21;102509.78;;;6.74;72.80
1480;BME280;732;51.698;4.886;2023-04-30T06:38:50;102516.34;;;6.70;71.96
1480;BME280;732;51.698;4.886;2023-04-30T06:41:25;102517.00;;;6.84;71.79
1480;BME280;732;51.698;4.886;2023-04-30T06:43:53;102518.44;;;6.89;72.27
1480;BME280;732;51.698;4.886;2023-04-30T06:46:22;102483.97;;;6.74;71.87
1480;BME280;732;51.698;4.886;2023-04-30T06:48:51;102520.91;;;6.92;71.55
1480;BME280;732;51.698;4.886;2023-04-30T06:51:19;102518.09;;;6.93;72.00
1480;BME280;732;51.698;4.886;2023-04-30T06:53:47;102520.78;;;6.93;71.99
1480;BME280;732;51.698;4.886;2023-04-30T06:56:16;102521.38;;;6.97;71.77
1480;BME280;732;51.698;4.886;2023-04-30T06:58:44;102520.06;;;7.03;71.60
1480;BME280;732;51.698;4.886;2023-04-30T07:01:12;102523.34;;;7.06;71.68
1480;BME280;732;51.698;4.886;2023-04-30T07:03:41;102522.38;;;7.07;71.94
1480;BME280;732;51.698;4.886;2023-04-30T07:06:10;102516.44;;;7.15;71.96
1480;BME280;732;51.698;4.886;2023-04-30T07:08:39;102524.47;;;7.26;71.77
1480;BME280;732;51.698;4.886;2023-04-30T07:11:09;102516.38;;;7.39;71.63
1480;BME280;732;51.698;4.886;2023-04-30T07:13:38;102522.19;;;7.56;71.76
1480;BME280;732;51.698;4.886;2023-04-30T07:16:06;102498.63;;;7.72;71.41
1480;BME280;732;51.698;4.886;2023-04-30T07:18:36;102512.94;;;8.17;70.56
1480;BME280;732;51.698;4.886;2023-04-30T07:21:05;102507.38;;;8.41;69.24
1480;BME280;732;51.698;4.886;2023-04-30T07:23:35;102515.56;;;8.60;68.06
1480;BME280;732;51.698;4.886;2023-04-30T07:26:04;102522.44;;;8.74;67.50
1480;BME280;732;51.698;4.886;2023-04-30T07:28:32;102499.97;;;8.87;67.23
1480;BME280;732;51.698;4.886;2023-04-30T07:31:00;102514.41;;;8.95;66.59
1480;BME280;732;51.698;4.886;2023-04-30T07:33:29;102507.63;;;8.91;66.75
1480;BME280;732;51.698;4.886;2023-04-30T07:36:00;102512.53;;;8.86;66.80
1480;BME280;732;51.698;4.886;2023-04-30T07:38:28;102514.22;;;8.87;66.98
1480;BME280;732;51.698;4.886;2023-04-30T07:40:58;102520.56;;;8.86;67.02
1480;BME280;732;51.698;4.886;2023-04-30T07:43:27;102525.97;;;8.96;66.69
1480;BME280;732;51.698;4.886;2023-04-30T07:45:57;102519.00;;;9.05;66.65
1480;BME280;732;51.698;4.886;2023-04-30T07:48:26;102515.66;;;9.13;65.70
1480;BME280;732;51.698;4.886;2023-04-30T07:50:54;102517.22;;;9.15;64.96
1480;BME280;732;51.698;4.886;2023-04-30T07:53:23;102518.78;;;9.18;65.44
1480;BME280;732;51.698;4.886;2023-04-30T07:55:51;102520.78;;;9.47;64.15
1480;BME280;732;51.698;4.886;2023-04-30T07:58:21;102456.88;;;9.83;63.25
1480;BME280;732;51.698;4.886;2023-04-30T08:00:49;102508.88;;;10.99;60.87
1480;BME280;732;51.698;4.886;2023-04-30T08:03:17;102522.06;;;12.06;59.17
1480;BME280;732;51.698;4.886;2023-04-30T08:05:46;102522.22;;;12.76;56.54
1480;BME280;732;51.698;4.886;2023-04-30T08:08:14;102515.78;;;13.40;53.42
1480;BME280;732;51.698;4.886;2023-04-30T08:10:43;102522.91;;;13.92;51.47
1480;BME280;732;51.698;4.886;2023-04-30T08:13:11;102497.00;;;14.24;51.09
1480;BME280;732;51.698;4.886;2023-04-30T08:15:40;102516.47;;;14.94;49.06
1480;BME280;732;51.698;4.886;2023-04-30T08:18:09;102516.91;;;15.22;49.70
1480;BME280;732;51.698;4.886;2023-04-30T08:20:38;102478.22;;;15.21;47.18
1480;BME280;732;51.698;4.886;2023-04-30T08:23:06;102516.41;;;15.66;47.50
1480;BME280;732;51.698;4.886;2023-04-30T08:25:35;102517.13;;;16.00;46.87
1480;BME280;732;51.698;4.886;2023-04-30T08:28:05;102516.69;;;16.19;47.37
1480;BME280;732;51.698;4.886;2023-04-30T08:30:33;102486.16;;;16.26;46.03
1480;BME280;732;51.698;4.886;2023-04-30T08:33:03;102512.41;;;16.72;44.16
1480;BME280;732;51.698;4.886;2023-04-30T08:35:31;102502.56;;;16.71;45.27
1480;BME280;732;51.698;4.886;2023-04-30T08:37:59;102518.72;;;17.02;44.27
1480;BME280;732;51.698;4.886;2023-04-30T08:40:28;102516.97;;;17.24;44.01
1480;BME280;732;51.698;4.886;2023-04-30T08:43:17;102493.97;;;17.35;44.69
1480;BME280;732;51.698;4.886;2023-04-30T08:45:46;102506.03;;;17.47;44.43
1480;BME280;732;51.698;4.886;2023-04-30T08:48:18;102513.25;;;17.70;43.95
1480;BME280;732;51.698;4.886;2023-04-30T08:50:48;102508.69;;;17.92;44.18
1480;BME280;732;51.698;4.886;2023-04-30T08:53:17;102516.13;;;17.84;43.86
1480;BME280;732;51.698;4.886;2023-04-30T08:55:47;102468.69;;;17.64;44.64
1480;BME280;732;51.698;4.886;2023-04-30T08:58:16;102488.47;;;17.58;45.11
1480;BME280;732;51.698;4.886;2023-04-30T09:00:44;102493.28;;;17.78;44.16
1480;BME280;732;51.698;4.886;2023-04-30T09:03:13;102509.56;;;17.78;44.25
1480;BME280;732;51.698;4.886;2023-04-30T09:05:42;102496.41;;;17.60;43.66
1480;BME280;732;51.698;4.886;2023-04-30T09:08:16;102490.97;;;17.60;43.31
1480;BME280;732;51.698;4.886;2023-04-30T09:10:46;102507.59;;;17.72;44.87
1480;BME280;732;51.698;4.886;2023-04-30T09:13:14;102495.66;;;17.66;43.52
1480;BME280;732;51.698;4.886;2023-04-30T09:15:42;102500.81;;;17.61;44.38
1480;BME280;732;51.698;4.886;2023-04-30T09:18:13;102473.28;;;17.49;43.87
1480;BME280;732;51.698;4.886;2023-04-30T09:20:56;102469.91;;;17.47;43.46
1480;BME280;732;51.698;4.886;2023-04-30T09:23:27;102494.03;;;17.42;44.89
1480;BME280;732;51.698;4.886;2023-04-30T09:25:56;102501.53;;;17.55;46.13
1480;BME280;732;51.698;4.886;2023-04-30T09:28:24;102466.91;;;17.57;45.47
1480;BME280;732;51.698;4.886;2023-04-30T09:30:56;102486.44;;;17.82;45.40
1480;BME280;732;51.698;4.886;2023-04-30T09:33:25;102496.81;;;17.93;44.87
1480;BME280;732;51.698;4.886;2023-04-30T09:35:54;102456.16;;;17.63;45.20
1480;BME280;732;51.698;4.886;2023-04-30T09:38:28;102447.25;;;17.55;44.21
1480;BME280;732;51.698;4.886;2023-04-30T09:40:58;102453.72;;;17.90;44.98
1480;BME280;732;51.698;4.886;2023-04-30T09:43:27;102489.69;;;18.14;44.61
1480;BME280;732;51.698;4.886;2023-04-30T09:45:57;102492.28;;;18.01;42.72
1480;BME280;732;51.698;4.886;2023-04-30T09:48:27;102468.06;;;17.84;42.71
1480;BME280;732;51.698;4.886;2023-04-30T09:50:57;102496.59;;;17.73;43.64
1480;BME280;732;51.698;4.886;2023-04-30T09:53:26;102472.00;;;17.60;45.15
1480;BME280;732;51.698;4.886;2023-04-30T09:55:57;102464.00;;;17.73;45.39
1480;BME280;732;51.698;4.886;2023-04-30T09:58:31;102486.41;;;17.97;44.58
1480;BME280;732;51.698;4.886;2023-04-30T10:01:04;102482.78;;;18.11;44.28
1480;BME280;732;51.698;4.886;2023-04-30T10:03:34;102460.78;;;18.06;45.43
1480;BME280;732;51.698;4.886;2023-04-30T10:06:05;102478.38;;;18.10;44.00
1480;BME280;732;51.698;4.886;2023-04-30T10:08:40;102457.16;;;17.99;43.89
1480;BME280;732;51.698;4.886;2023-04-30T10:11:11;102457.31;;;18.12;43.95
1480;BME280;732;51.698;4.886;2023-04-30T10:13:48;102475.47;;;18.34;43.11
1480;BME280;732;51.698;4.886;2023-04-30T10:16:26;102444.19;;;18.16;43.23
1480;BME280;732;51.698;4.886;2023-04-30T10:19:03;102458.34;;;18.33;42.84
1480;BME280;732;51.698;4.886;2023-04-30T10:21:40;102456.72;;;18.39;43.38
1480;BME280;732;51.698;4.886;2023-04-30T10:24:11;102429.19;;;18.42;42.64
1480;BME280;732;51.698;4.886;2023-04-30T10:26:40;102470.59;;;18.72;43.79
1480;BME280;732;51.698;4.886;2023-04-30T10:29:09;102445.13;;;18.80;44.04
1480;BME280;732;51.698;4.886;2023-04-30T10:31:40;102431.84;;;18.64;40.96
1480;BME280;732;51.698;4.886;2023-04-30T10:34:18;102441.53;;;18.44;42.17
1480;BME280;732;51.698;4.886;2023-04-30T10:36:56;102430.66;;;18.44;40.88
1480;BME280;732;51.698;4.886;2023-04-30T10:39:27;102455.72;;;18.68;42.30
1480;BME280;732;51.698;4.886;2023-04-30T10:42:03;102429.16;;;18.70;43.29
1480;BME280;732;51.698;4.886;2023-04-30T10:44:33;102443.25;;;18.81;42.64
1480;BME280;732;51.698;4.886;2023-04-30T10:47:03;102419.16;;;18.77;42.82
1480;BME280;732;51.698;4.886;2023-04-30T10:49:32;102454.06;;;19.02;42.08
1480;BME280;732;51.698;4.886;2023-04-30T10:52:03;102429.00;;;18.78;41.25
1480;BME280;732;51.698;4.886;2023-04-30T10:54:36;102406.78;;;18.40;40.18
1480;BME280;732;51.698;4.886;2023-04-30T10:57:12;102399.97;;;18.51;40.22
1480;BME280;732;51.698;4.886;2023-04-30T10:59:50;102399.44;;;18.62;41.29
1480;BME280;732;51.698;4.886;2023-04-30T11:02:19;102400.13;;;18.77;42.91
1480;BME280;732;51.698;4.886;2023-04-30T11:05:15;102427.97;;;19.15;41.87
1480;BME280;732;51.698;4.886;2023-04-30T11:07:50;102402.81;;;19.13;41.49
1480;BME280;732;51.698;4.886;2023-04-30T11:10:21;102416.59;;;19.39;41.86
1480;BME280;732;51.698;4.886;2023-04-30T11:12:51;102402.31;;;19.31;41.10
1480;BME280;732;51.698;4.886;2023-04-30T11:15:23;102386.66;;;19.39;41.44
1480;BME280;732;51.698;4.886;2023-04-30T11:17:56;102419.16;;;19.54;41.60
1480;BME280;732;51.698;4.886;2023-04-30T11:20:28;102413.31;;;19.64;41.70
1480;BME280;732;51.698;4.886;2023-04-30T11:23:12;102405.38;;;19.69;41.42
1480;BME280;732;51.698;4.886;2023-04-30T11:25:55;102408.13;;;19.89;40.48
1480;BME280;732;51.698;4.886;2023-04-30T11:28:25;102404.31;;;19.84;41.00
1480;BME280;732;51.698;4.886;2023-04-30T11:30:56;102401.41;;;19.85;40.29
1480;BME280;732;51.698;4.886;2023-04-30T11:33:26;102379.19;;;19.75;39.89
1480;BME280;732;51.698;4.886;2023-04-30T11:35:56;102375.41;;;19.69;38.17
1480;BME280;732;51.698;4.886;2023-04-30T11:38:29;102385.91;;;19.79;40.57
1480;BME280;732;51.698;4.886;2023-04-30T11:40:58;102385.91;;;19.86;41.75
1480;BME280;732;51.698;4.886;2023-04-30T11:43:28;102370.97;;;19.55;37.88
1480;BME280;732;51.698;4.886;2023-04-30T11:46:06;102357.97;;;19.43;38.48
1480;BME280;732;51.698;4.886;2023-04-30T11:48:36;102369.31;;;19.61;40.79
1480;BME280;732;51.698;4.886;2023-04-30T11:51:14;102375.63;;;19.74;39.52
1480;BME280;732;51.698;4.886;2023-04-30T11:53:45;102368.53;;;19.80;38.51
1480;BME280;732;51.698;4.886;2023-04-30T11:56:16;102367.69;;;19.86;40.81
1480;BME280;732;51.698;4.886;2023-04-30T11:58:46;102335.84;;;19.87;39.35
1480;BME280;732;51.698;4.886;2023-04-30T12:01:15;102359.75;;;19.98;38.39
1480;BME280;732;51.698;4.886;2023-04-30T12:03:46;102356.38;;;19.96;37.40
1480;BME280;732;51.698;4.886;2023-04-30T12:06:21;102337.22;;;19.36;40.78
1480;BME280;732;51.698;4.886;2023-04-30T12:08:53;102348.19;;;19.69;40.48
1480;BME280;732;51.698;4.886;2023-04-30T12:11:25;102352.41;;;19.85;40.09
1480;BME280;732;51.698;4.886;2023-04-30T12:13:55;102296.88;;;19.73;39.74
1480;BME280;732;51.698;4.886;2023-04-30T12:16:24;102313.44;;;19.92;39.72
1480;BME280;732;51.698;4.886;2023-04-30T12:18:56;102345.91;;;20.27;40.61
1480;BME280;732;51.698;4.886;2023-04-30T12:21:24;102331.84;;;20.30;40.29
1480;BME280;732;51.698;4.886;2023-04-30T12:23:56;102314.06;;;20.20;39.09
1480;BME280;732;51.698;4.886;2023-04-30T12:26:34;102329.53;;;20.40;38.56
1480;BME280;732;51.698;4.886;2023-04-30T12:29:04;102295.56;;;20.36;39.19
1480;BME280;732;51.698;4.886;2023-04-30T12:31:33;102292.88;;;20.29;39.92
1480;BME280;732;51.698;4.886;2023-04-30T12:34:06;102330.94;;;20.63;39.56
1480;BME280;732;51.698;4.886;2023-04-30T12:36:35;102329.06;;;20.70;38.76
1480;BME280;732;51.698;4.886;2023-04-30T12:39:10;102328.63;;;20.73;39.56
1480;BME280;732;51.698;4.886;2023-04-30T12:41:40;102327.13;;;20.84;38.41
1480;BME280;732;51.698;4.886;2023-04-30T12:44:20;102321.19;;;21.00;38.56
1480;BME280;732;51.698;4.886;2023-04-30T12:46:50;102286.16;;;20.97;38.18
1480;BME280;732;51.698;4.886;2023-04-30T12:49:26;102294.06;;;21.12;37.23
1480;BME280;732;51.698;4.886;2023-04-30T12:52:02;102281.88;;;21.08;37.95
1480;BME280;732;51.698;4.886;2023-04-30T12:54:32;102296.69;;;21.26;38.85
1480;BME280;732;51.698;4.886;2023-04-30T12:57:03;102283.88;;;21.26;37.91
1480;BME280;732;51.698;4.886;2023-04-30T12:59:35;102313.97;;;21.51;36.83
1480;BME280;732;51.698;4.886;2023-04-30T13:02:08;102306.34;;;21.60;37.91
1480;BME280;732;51.698;4.886;2023-04-30T13:04:37;102270.78;;;21.42;35.99
1480;BME280;732;51.698;4.886;2023-04-30T13:07:06;102290.44;;;21.50;37.30
1480;BME280;732;51.698;4.886;2023-04-30T13:09:37;102275.59;;;21.46;37.24
1480;BME280;732;51.698;4.886;2023-04-30T13:12:06;102286.66;;;21.51;37.80
1480;BME280;732;51.698;4.886;2023-04-30T13:14:34;102266.53;;;21.46;38.18
1480;BME280;732;51.698;4.886;2023-04-30T13:17:03;102274.94;;;21.44;38.42
1480;BME280;732;51.698;4.886;2023-04-30T13:19:33;102258.22;;;21.34;38.33
1480;BME280;732;51.698;4.886;2023-04-30T13:22:01;102271.97;;;21.52;36.94
1480;BME280;732;51.698;4.886;2023-04-30T13:24:29;102271.41;;;21.69;37.73
1480;BME280;732;51.698;4.886;2023-04-30T13:26:59;102273.81;;;21.59;35.95
1480;BME280;732;51.698;4.886;2023-04-30T13:29:28;102247.06;;;21.35;36.79
1480;BME280;732;51.698;4.886;2023-04-30T13:31:58;102180.66;;;21.16;37.09
1480;BME280;732;51.698;4.886;2023-04-30T13:34:28;102269.63;;;21.81;36.35
1480;BME280;732;51.698;4.886;2023-04-30T13:36:56;102268.22;;;21.97;36.13
1480;BME280;732;51.698;4.886;2023-04-30T13:39:25;102262.66;;;22.11;35.89
1480;BME280;732;51.698;4.886;2023-04-30T13:41:53;102264.41;;;22.24;36.03
1480;BME280;732;51.698;4.886;2023-04-30T13:44:24;102229.38;;;22.14;35.12